createdAt,value
2018-09-18T00:02:14.364Z,4.60
2018-09-18T00:04:42.759Z,4.90
2018-09-18T00:07:11.175Z,4.30
2018-09-18T00:09:39.563Z,4.60
2018-09-18T00:12:12.959Z,4.73
2018-09-18T00:14:41.342Z,4.47
2018-09-18T00:17:09.750Z,4.80
2018-09-18T00:19:38.159Z,4.37
2018-09-18T00:22:06.532Z,5.10
2018-09-18T00:24:34.903Z,4.97
2018-09-18T00:27:03.315Z,5.20
2018-09-18T00:29:31.710Z,4.80
2018-09-18T00:32:00.098Z,4.63
2018-09-18T00:34:28.518Z,4.53
2018-09-18T00:36:56.906Z,4.70
2018-09-18T00:39:25.286Z,4.37
2018-09-18T00:41:53.703Z,4.60
2018-09-18T00:44:22.103Z,4.20
2018-09-18T00:46:50.496Z,4.47
2018-09-18T00:49:18.883Z,4.30
2018-09-18T00:51:47.267Z,3.93
2018-09-18T00:54:15.658Z,5.10
2018-09-18T00:56:44.071Z,5.17
2018-09-18T00:59:12.451Z,4.93
2018-09-18T01:01:40.852Z,4.97
2018-09-18T01:04:09.283Z,4.70
2018-09-18T01:06:37.679Z,4.30
2018-09-18T01:09:07.239Z,5.00
2018-09-18T01:11:35.634Z,4.63
2018-09-18T01:14:04.003Z,4.87
2018-09-18T01:16:32.378Z,4.43
2018-09-18T01:19:00.774Z,4.97
2018-09-18T01:21:29.163Z,5.43
2018-09-18T01:23:57.544Z,4.60
2018-09-18T01:26:25.930Z,4.67
2018-09-18T01:28:54.304Z,5.00
2018-09-18T01:31:22.692Z,5.07
2018-09-18T01:33:51.094Z,5.07
2018-09-18T01:36:19.481Z,4.53
2018-09-18T01:38:48.085Z,4.63
2018-09-18T01:41:16.579Z,5.13
2018-09-18T01:43:44.995Z,4.50
2018-09-18T01:46:13.339Z,4.63
2018-09-18T01:48:41.741Z,4.70
2018-09-18T01:51:10.115Z,4.60
2018-09-18T01:53:38.500Z,5.20
2018-09-18T01:56:07.066Z,4.43
2018-09-18T01:58:35.439Z,4.80
2018-09-18T02:01:03.818Z,4.50
2018-09-18T02:03:32.450Z,4.37
2018-09-18T02:06:00.848Z,5.13
2018-09-18T02:08:29.249Z,4.17
2018-09-18T02:10:57.660Z,4.50
2018-09-18T02:13:26.039Z,4.90
2018-09-18T02:15:54.419Z,4.70
2018-09-18T02:18:22.878Z,4.27
2018-09-18T02:20:51.271Z,5.47
2018-09-18T02:23:19.668Z,4.50
2018-09-18T02:25:48.063Z,4.43
2018-09-18T02:28:16.438Z,4.30
2018-09-18T02:30:44.820Z,5.00
2018-09-18T02:33:13.222Z,4.60
2018-09-18T02:35:41.619Z,4.57
2018-09-18T02:38:09.994Z,4.57
2018-09-18T02:40:38.399Z,4.73
2018-09-18T02:43:06.773Z,4.80
2018-09-18T02:45:35.155Z,4.43
2018-09-18T02:48:03.547Z,5.00
2018-09-18T02:50:31.932Z,4.90
2018-09-18T02:53:00.324Z,4.13
2018-09-18T02:55:28.735Z,4.63
2018-09-18T02:57:57.115Z,4.13
2018-09-18T03:00:25.500Z,4.10
2018-09-18T03:02:53.914Z,4.33
2018-09-18T03:05:22.292Z,4.17
2018-09-18T03:07:50.900Z,3.87
2018-09-18T03:10:19.631Z,4.23
2018-09-18T03:12:48.106Z,4.17
2018-09-18T03:15:16.499Z,4.23
2018-09-18T03:17:44.901Z,3.83
2018-09-18T03:20:13.527Z,4.40
2018-09-18T03:22:42.232Z,4.50
2018-09-18T03:25:10.715Z,4.03
2018-09-18T03:27:39.108Z,4.03
2018-09-18T03:30:07.486Z,4.20
2018-09-18T03:32:36.108Z,4.13
2018-09-18T03:35:04.582Z,4.23
2018-09-18T03:37:32.965Z,4.30
2018-09-18T03:40:01.371Z,4.57
2018-09-18T03:42:29.751Z,4.30
2018-09-18T03:44:58.133Z,4.30
2018-09-18T03:47:26.548Z,3.93
2018-09-18T03:49:54.961Z,4.40
2018-09-18T03:52:23.351Z,4.57
2018-09-18T03:54:51.851Z,4.33
2018-09-18T03:57:20.227Z,4.63
2018-09-18T03:59:48.628Z,4.10
2018-09-18T04:02:17.047Z,4.33
2018-09-18T04:04:45.433Z,4.10
2018-09-18T04:07:13.818Z,4.10
2018-09-18T04:09:42.218Z,4.77
2018-09-18T04:12:10.803Z,4.13
2018-09-18T04:14:39.167Z,4.30
2018-09-18T04:17:07.789Z,4.30
2018-09-18T04:19:36.491Z,4.80
2018-09-18T04:22:04.953Z,4.57
2018-09-18T04:24:33.349Z,4.40
2018-09-18T04:27:01.752Z,4.80
2018-09-18T04:29:30.348Z,4.90
2018-09-18T04:31:58.843Z,4.97
2018-09-18T04:34:27.227Z,4.90
2018-09-18T04:36:55.612Z,4.97
2018-09-18T04:39:24.231Z,5.10
2018-09-18T04:41:52.704Z,4.73
2018-09-18T04:44:21.102Z,5.23
2018-09-18T04:46:49.531Z,4.80
2018-09-18T04:49:18.106Z,5.13
2018-09-18T04:51:46.575Z,5.13
2018-09-18T04:54:14.970Z,5.33
2018-09-18T04:56:43.351Z,5.70
2018-09-18T04:59:11.947Z,4.93
2018-09-18T05:01:40.676Z,5.20
2018-09-18T05:04:09.347Z,4.97
2018-09-18T05:06:38.038Z,4.80
2018-09-18T05:09:07.163Z,4.77
2018-09-18T05:11:35.764Z,4.93
2018-09-18T05:14:04.342Z,4.60
2018-09-18T05:16:32.906Z,5.27
2018-09-18T05:19:01.278Z,4.50
2018-09-18T05:21:29.659Z,4.77
2018-09-18T05:23:58.098Z,4.43
2018-09-18T05:26:26.467Z,4.50
2018-09-18T05:28:54.847Z,4.53
2018-09-18T05:31:23.467Z,4.37
2018-09-18T05:33:52.169Z,4.50
2018-09-18T05:36:20.651Z,4.60
2018-09-18T05:38:49.067Z,4.10
2018-09-18T05:41:17.443Z,4.37
2018-09-18T05:43:45.873Z,4.50
2018-09-18T05:46:14.215Z,3.90
2018-09-18T05:48:42.599Z,4.53
2018-09-18T05:51:10.962Z,4.27
2018-09-18T05:53:39.374Z,4.40
2018-09-18T05:56:07.760Z,4.40
2018-09-18T05:58:36.139Z,4.17
2018-09-18T06:01:04.539Z,4.20
2018-09-18T06:03:32.923Z,5.97
2018-09-18T06:06:01.301Z,4.67
2018-09-18T06:08:29.944Z,4.37
2018-09-18T06:10:58.631Z,4.77
2018-09-18T06:13:27.331Z,4.70
2018-09-18T06:15:56.049Z,4.93
2018-09-18T06:18:24.515Z,4.40
2018-09-18T06:20:52.886Z,5.17
2018-09-18T06:23:21.325Z,4.37
2018-09-18T06:25:49.909Z,4.30
2018-09-18T06:28:18.575Z,5.00
2018-09-18T06:30:47.070Z,5.20
2018-09-18T06:33:15.580Z,5.30
2018-09-18T06:35:43.969Z,4.67
2018-09-18T06:38:12.597Z,4.80
2018-09-18T06:40:41.052Z,4.73
2018-09-18T06:43:09.635Z,4.60
2018-09-18T06:45:38.124Z,4.67
2018-09-18T06:48:06.562Z,4.80
2018-09-18T06:50:34.893Z,4.33
2018-09-18T06:53:03.290Z,4.53
2018-09-18T06:55:31.663Z,4.33
2018-09-18T06:58:00.282Z,4.53
2018-09-18T07:00:28.766Z,4.07
2018-09-18T07:02:57.367Z,4.50
2018-09-18T07:05:25.862Z,4.23
2018-09-18T07:07:54.254Z,4.20
2018-09-18T07:10:22.639Z,4.47
2018-09-18T07:12:51.006Z,4.27
2018-09-18T07:15:19.401Z,4.40
2018-09-18T07:17:48.044Z,4.47
2018-09-18T07:20:16.516Z,4.23
2018-09-18T07:22:44.902Z,3.90
2018-09-18T07:25:13.280Z,4.10
2018-09-18T07:27:41.868Z,3.70
2018-09-18T07:30:10.607Z,4.30
2018-09-18T07:32:39.077Z,4.47
2018-09-18T07:35:07.675Z,3.90
2018-09-18T07:37:36.155Z,3.45
2018-09-18T07:40:04.755Z,4.00
2018-09-18T07:42:33.447Z,4.00
2018-09-18T07:45:02.173Z,4.12
2018-09-18T07:47:30.900Z,4.10
2018-09-18T07:49:59.587Z,4.30
2018-09-18T07:52:28.575Z,3.92
2018-09-18T07:54:57.275Z,4.28
2018-09-18T07:57:25.965Z,3.65
2018-09-18T07:59:54.943Z,3.98
2018-09-18T08:02:28.631Z,4.12
2018-09-18T08:04:57.616Z,3.98
2018-09-18T08:07:26.332Z,3.45
2018-09-18T08:09:54.999Z,3.98
2018-09-18T08:12:23.955Z,3.67
2018-09-18T08:14:52.921Z,3.90
2018-09-18T08:17:21.776Z,3.60
2018-09-18T08:19:50.784Z,3.45
2018-09-18T08:22:19.684Z,3.45
2018-09-18T08:24:48.367Z,3.80
2018-09-18T08:27:17.075Z,3.60
2018-09-18T08:29:45.772Z,3.65
2018-09-18T08:32:14.467Z,3.50
2018-09-18T08:34:42.953Z,3.92
2018-09-18T08:37:11.323Z,3.55
2018-09-18T08:39:39.735Z,3.40
2018-09-18T08:42:08.123Z,3.50
2018-09-18T08:44:36.480Z,3.50
2018-09-18T08:47:04.863Z,4.55
2018-09-18T08:49:33.483Z,3.65
2018-09-18T08:52:01.989Z,3.50
2018-09-18T08:54:30.388Z,3.20
2018-09-18T08:56:58.747Z,4.92
2018-09-18T08:59:27.362Z,3.25
2018-09-18T09:01:56.077Z,3.52
2018-09-18T09:04:24.821Z,4.50
2018-09-18T09:06:53.263Z,4.62
2018-09-18T09:09:21.920Z,4.05
2018-09-18T09:11:50.618Z,4.80
2018-09-18T09:14:19.326Z,3.60
2018-09-18T09:16:47.754Z,4.53
2018-09-18T09:19:16.724Z,3.75
2018-09-18T09:21:45.444Z,4.10
2018-09-18T09:24:14.056Z,3.83
2018-09-18T09:26:42.853Z,4.85
2018-09-18T09:29:11.203Z,3.92
2018-09-18T09:31:39.803Z,4.22
2018-09-18T09:34:08.507Z,3.47
2018-09-18T09:36:37.200Z,3.37
2018-09-18T09:39:07.207Z,3.42
2018-09-18T09:41:35.837Z,3.50
2018-09-18T09:44:04.540Z,3.70
2018-09-18T09:46:32.999Z,3.58
2018-09-18T09:49:01.868Z,3.45
2018-09-18T09:51:30.595Z,4.05
2018-09-18T09:53:59.244Z,4.08
2018-09-18T09:56:27.974Z,3.40
2018-09-18T09:58:56.707Z,5.28
2018-09-18T10:01:30.912Z,4.28
2018-09-18T10:03:59.602Z,3.70
2018-09-18T10:06:28.288Z,3.77
2018-09-18T10:08:57.029Z,3.87
2018-09-18T10:11:25.493Z,3.50
2018-09-18T10:13:54.101Z,3.90
2018-09-18T10:16:22.829Z,3.40
2018-09-18T10:18:51.484Z,3.62
2018-09-18T10:21:20.171Z,3.55
2018-09-18T10:23:48.910Z,3.20
2018-09-18T10:26:17.695Z,3.62
2018-09-18T10:28:46.301Z,3.85
2018-09-18T10:31:15.004Z,3.75
2018-09-18T10:33:43.471Z,3.50
2018-09-18T10:36:12.055Z,3.37
2018-09-18T10:38:40.765Z,3.30
2018-09-18T10:41:09.557Z,3.50
2018-09-18T10:43:38.158Z,3.60
2018-09-18T10:46:06.928Z,3.87
2018-09-18T10:48:41.072Z,3.55
2018-09-18T10:51:09.791Z,3.50
2018-09-18T10:53:38.526Z,4.65
2018-09-18T10:56:06.912Z,3.25
2018-09-18T10:58:35.532Z,3.55
2018-09-18T11:01:04.227Z,3.55
2018-09-18T11:03:32.944Z,3.52
2018-09-18T11:06:01.431Z,3.67
2018-09-18T11:08:30.069Z,3.33
2018-09-18T11:10:58.729Z,3.60
2018-09-18T11:13:27.488Z,3.40
2018-09-18T11:15:56.205Z,4.40
2018-09-18T11:18:24.866Z,4.28
2018-09-18T11:20:53.655Z,3.40
2018-09-18T11:23:22.235Z,3.65
2018-09-18T11:25:51.050Z,3.47
2018-09-18T11:28:19.999Z,3.75
2018-09-18T11:30:48.674Z,5.58
2018-09-18T11:33:17.164Z,3.60
2018-09-18T11:35:45.863Z,3.58
2018-09-18T11:38:14.281Z,3.60
2018-09-18T11:40:42.904Z,3.83
2018-09-18T11:43:11.752Z,10.23
2018-09-18T11:45:40.178Z,3.90
2018-09-18T11:48:08.524Z,4.25
2018-09-18T11:50:36.935Z,3.70
2018-09-18T11:53:05.335Z,5.00
2018-09-18T11:55:33.940Z,3.37
2018-09-18T11:58:02.651Z,3.40
2018-09-18T12:00:31.145Z,4.17
2018-09-18T12:02:59.809Z,2.98
2018-09-18T12:05:28.473Z,3.15
2018-09-18T12:07:57.168Z,4.58
2018-09-18T12:10:25.661Z,3.87
2018-09-18T12:12:54.276Z,3.37
2018-09-18T12:15:22.986Z,3.50
2018-09-18T12:17:52.140Z,3.67
2018-09-18T12:20:20.852Z,3.42
2018-09-18T12:22:49.602Z,3.58
2018-09-18T12:25:18.244Z,3.50
2018-09-18T12:27:47.007Z,4.03
2018-09-18T12:30:15.688Z,3.45
2018-09-18T12:32:44.185Z,3.35
2018-09-18T12:35:12.635Z,3.52
2018-09-18T12:37:40.986Z,3.52
2018-09-18T12:40:09.598Z,3.25
2018-09-18T12:42:38.416Z,3.08
2018-09-18T12:45:06.888Z,3.90
2018-09-18T12:47:35.287Z,3.17
2018-09-18T12:50:03.966Z,3.30
2018-09-18T12:52:42.403Z,4.10
2018-09-18T12:55:10.938Z,3.37
2018-09-18T12:57:39.438Z,3.65
2018-09-18T13:00:07.889Z,5.25
2018-09-18T13:02:36.494Z,3.30
2018-09-18T13:05:05.209Z,3.47
2018-09-18T13:07:33.962Z,3.60
2018-09-18T13:10:02.741Z,3.40
2018-09-18T13:12:31.391Z,3.77
2018-09-18T13:15:14.358Z,3.15
2018-09-18T13:17:42.778Z,3.77
2018-09-18T13:20:11.327Z,5.35
2018-09-18T13:22:40.210Z,3.60
2018-09-18T13:25:08.676Z,3.75
2018-09-18T13:27:37.287Z,3.60
2018-09-18T13:30:06.242Z,3.65
2018-09-18T13:32:34.885Z,3.72
2018-09-18T13:35:03.552Z,3.47
2018-09-18T13:37:32.262Z,3.50
2018-09-18T13:40:00.735Z,11.35
2018-09-18T13:42:29.133Z,3.60
2018-09-18T13:44:57.527Z,13.50
2018-09-18T13:47:26.123Z,3.40
2018-09-18T13:49:54.803Z,3.15
2018-09-18T13:52:23.294Z,3.50
2018-09-18T13:54:51.884Z,3.90
2018-09-18T13:57:20.401Z,3.90
2018-09-18T13:59:48.743Z,3.22
2018-09-18T14:02:17.145Z,3.60
2018-09-18T14:04:45.744Z,3.40
2018-09-18T14:07:14.440Z,3.30
2018-09-18T14:09:43.132Z,3.15
2018-09-18T14:12:11.602Z,3.30
2018-09-18T14:14:40.048Z,2.95
2018-09-18T14:17:08.680Z,3.25
2018-09-18T14:19:37.162Z,3.50
2018-09-18T14:22:05.557Z,3.10
2018-09-18T14:24:33.945Z,4.20
2018-09-18T14:27:02.583Z,7.35
2018-09-18T14:29:31.055Z,4.72
2018-09-18T14:31:59.677Z,3.12
2018-09-18T14:34:28.358Z,3.40
2018-09-18T14:36:57.057Z,3.42
2018-09-18T14:39:25.760Z,3.58
2018-09-18T14:41:54.241Z,3.42
2018-09-18T14:44:22.657Z,3.33
2018-09-18T14:46:51.041Z,3.02
2018-09-18T14:49:19.627Z,3.00
2018-09-18T14:51:48.344Z,4.12
2018-09-18T14:54:16.819Z,3.30
2018-09-18T14:56:45.419Z,3.30
2018-09-18T14:59:13.920Z,3.12
2018-09-18T15:01:42.531Z,3.42
2018-09-18T15:04:11.210Z,4.12
2018-09-18T15:06:39.928Z,3.02
2018-09-18T15:09:09.527Z,3.08
2018-09-18T15:11:38.294Z,3.90
2018-09-18T15:14:06.898Z,3.10
2018-09-18T15:16:35.574Z,3.60
2018-09-18T15:19:03.944Z,3.45
2018-09-18T15:21:33.494Z,3.70
2018-09-18T15:24:02.071Z,3.35
2018-09-18T15:26:30.767Z,2.87
2018-09-18T15:28:59.544Z,3.72
2018-09-18T15:31:28.143Z,3.98
2018-09-18T15:33:56.910Z,3.58
2018-09-18T15:36:25.339Z,5.75
2018-09-18T15:38:53.935Z,3.47
2018-09-18T15:41:22.411Z,3.50
2018-09-18T15:43:50.809Z,3.37
2018-09-18T15:46:19.424Z,3.17
2018-09-18T15:48:48.117Z,3.30
2018-09-18T15:51:16.828Z,3.40
2018-09-18T15:53:45.291Z,4.05
2018-09-18T15:56:13.688Z,3.42
2018-09-18T15:58:42.089Z,3.30
2018-09-18T16:01:10.691Z,3.47
2018-09-18T16:03:39.188Z,3.62
2018-09-18T16:06:07.557Z,3.60
2018-09-18T16:08:35.942Z,3.50
2018-09-18T16:11:04.548Z,3.40
2018-09-18T16:13:33.388Z,3.67
2018-09-18T16:16:02.003Z,3.55
2018-09-18T16:18:30.700Z,3.60
2018-09-18T16:20:59.459Z,3.42
2018-09-18T16:23:28.147Z,3.90
2018-09-18T16:25:56.884Z,3.70
2018-09-18T16:28:25.747Z,3.47
2018-09-18T16:30:54.451Z,3.50
2018-09-18T16:33:23.127Z,3.52
2018-09-18T16:35:51.852Z,3.70
2018-09-18T16:38:20.523Z,3.70
2018-09-18T16:40:50.365Z,3.75
2018-09-18T16:43:19.017Z,3.52
2018-09-18T16:45:47.468Z,3.72
2018-09-18T16:48:15.847Z,3.60
2018-09-18T16:50:44.273Z,3.77
2018-09-18T16:53:12.663Z,3.67
2018-09-18T16:55:41.310Z,3.98
2018-09-18T16:58:10.048Z,3.80
2018-09-18T17:00:43.850Z,3.72
2018-09-18T17:03:12.263Z,3.75
2018-09-18T17:05:40.660Z,3.80
2018-09-18T17:08:09.027Z,3.70
2018-09-18T17:10:37.582Z,3.80
2018-09-18T17:13:05.920Z,4.80
2018-09-18T17:15:34.421Z,4.15
2018-09-18T17:18:03.037Z,4.15
2018-09-18T17:20:31.631Z,3.90
2018-09-18T17:23:00.031Z,4.30
2018-09-18T17:25:28.964Z,3.85
2018-09-18T17:27:57.746Z,4.40
2018-09-18T17:30:26.581Z,4.20
2018-09-18T17:32:55.151Z,4.22
2018-09-18T17:35:23.556Z,4.25
2018-09-18T17:37:52.267Z,4.17
2018-09-18T17:40:20.676Z,3.75
2018-09-18T17:42:49.141Z,3.95
2018-09-18T17:45:17.566Z,3.80
2018-09-18T17:47:46.299Z,3.85
2018-09-18T17:50:14.991Z,4.00
2018-09-18T17:52:43.330Z,4.12
2018-09-18T17:55:12.360Z,4.22
2018-09-18T17:57:40.843Z,4.28
2018-09-18T18:00:09.272Z,4.22
2018-09-18T18:02:42.802Z,5.03
2018-09-18T18:05:11.914Z,5.37
2018-09-18T18:07:41.519Z,5.40
2018-09-18T18:10:10.188Z,4.87
2018-09-18T18:12:38.724Z,6.03
2018-09-18T18:15:07.309Z,6.05
2018-09-18T18:17:36.250Z,6.28
2018-09-18T18:20:04.870Z,5.65
2018-09-18T18:22:33.689Z,6.37
2018-09-18T18:25:02.448Z,6.22
2018-09-18T18:27:30.944Z,5.87
2018-09-18T18:29:59.927Z,6.15
2018-09-18T18:32:29.040Z,6.15
2018-09-18T18:34:57.462Z,6.90
2018-09-18T18:37:26.169Z,6.37
2018-09-18T18:39:55.117Z,6.62
2018-09-18T18:42:23.741Z,7.25
2018-09-18T18:44:53.457Z,7.25
2018-09-18T18:47:22.097Z,8.05
2018-09-18T18:49:50.574Z,7.92
2018-09-18T18:52:19.000Z,8.63
2018-09-18T18:54:47.676Z,7.40
2018-09-18T18:57:16.023Z,7.37
2018-09-18T18:59:44.709Z,8.03
2018-09-18T19:02:13.332Z,8.23
2018-09-18T19:04:41.976Z,8.50
2018-09-18T19:07:10.688Z,9.13
2018-09-18T19:09:39.210Z,8.70
2018-09-18T19:12:07.638Z,7.93
2018-09-18T19:14:35.994Z,8.77
2018-09-18T19:17:04.631Z,8.90
2018-09-18T19:19:33.968Z,8.23
2018-09-18T19:22:02.459Z,9.07
2018-09-18T19:24:30.866Z,8.67
2018-09-18T19:26:59.311Z,9.03
2018-09-18T19:29:27.691Z,8.00
2018-09-18T19:31:57.183Z,9.37
2018-09-18T19:34:25.564Z,9.50
2018-09-18T19:36:53.958Z,9.43
2018-09-18T19:39:22.637Z,10.10
2018-09-18T19:41:51.095Z,9.03
2018-09-18T19:44:19.489Z,9.60
2018-09-18T19:46:47.923Z,9.20
2018-09-18T19:49:16.335Z,8.83
2018-09-18T19:51:44.752Z,9.63
2018-09-18T19:54:13.164Z,9.03
2018-09-18T19:56:41.572Z,9.30
2018-09-18T19:59:09.974Z,9.50
2018-09-18T20:01:38.423Z,8.27
2018-09-18T20:04:06.768Z,9.43
2018-09-18T20:06:35.149Z,8.37
2018-09-18T20:09:04.370Z,8.30
2018-09-18T20:11:32.751Z,9.77
2018-09-18T20:14:01.156Z,9.20
2018-09-18T20:16:29.832Z,8.50
2018-09-18T20:18:58.445Z,9.17
2018-09-18T20:21:27.144Z,8.97
2018-09-18T20:23:55.651Z,8.20
2018-09-18T20:26:24.030Z,7.53
2018-09-18T20:28:52.455Z,7.67
2018-09-18T20:31:21.097Z,7.37
2018-09-18T20:33:49.620Z,8.10
2018-09-18T20:36:18.162Z,7.23
2018-09-18T20:38:46.436Z,6.77
2018-09-18T20:41:14.822Z,7.30
2018-09-18T20:43:43.234Z,6.80
2018-09-18T20:46:11.656Z,7.33
2018-09-18T20:48:40.051Z,7.80
2018-09-18T20:51:08.689Z,6.63
2018-09-18T20:53:37.211Z,7.47
2018-09-18T20:56:05.633Z,7.47
2018-09-18T20:58:34.024Z,7.20
2018-09-18T21:01:02.695Z,7.70
2018-09-18T21:03:31.196Z,6.80
2018-09-18T21:05:59.596Z,6.53
2018-09-18T21:08:28.074Z,7.17
2018-09-18T21:10:56.440Z,6.27
2018-09-18T21:13:25.040Z,6.50
2018-09-18T21:15:53.552Z,6.23
2018-09-18T21:18:21.944Z,6.63
2018-09-18T21:20:50.392Z,5.97
2018-09-18T21:23:18.972Z,6.40
2018-09-18T21:26:06.169Z,6.10
2018-09-18T21:28:34.576Z,6.20
2018-09-18T21:31:02.984Z,6.10
2018-09-18T21:33:31.374Z,6.50
2018-09-18T21:36:00.310Z,6.10
2018-09-18T21:38:29.197Z,6.67
2018-09-18T21:40:57.701Z,6.87
2018-09-18T21:43:27.179Z,6.57
2018-09-18T21:45:55.704Z,5.97
2018-09-18T21:48:24.119Z,6.70
2018-09-18T21:50:52.540Z,6.97
2018-09-18T21:53:21.176Z,6.30
2018-09-18T21:55:49.677Z,6.27
2018-09-18T21:58:18.092Z,6.00
2018-09-18T22:00:46.559Z,6.23
2018-09-18T22:03:15.205Z,5.87
2018-09-18T22:05:43.730Z,6.87
2018-09-18T22:08:12.172Z,6.67
2018-09-18T22:10:40.603Z,6.80
2018-09-18T22:13:09.037Z,7.23
2018-09-18T22:15:37.490Z,7.47
2018-09-18T22:18:05.990Z,6.53
2018-09-18T22:20:34.619Z,6.97
2018-09-18T22:23:03.129Z,6.70
2018-09-18T22:25:31.663Z,6.57
2018-09-18T22:28:00.631Z,6.37
2018-09-18T22:30:29.299Z,5.80
2018-09-18T22:32:57.691Z,6.93
2018-09-18T22:35:26.092Z,6.73
2018-09-18T22:37:54.505Z,7.07
2018-09-18T22:40:22.891Z,6.27
2018-09-18T22:42:51.324Z,7.23
2018-09-18T22:45:19.704Z,6.40
2018-09-18T22:47:48.106Z,7.77
2018-09-18T22:50:16.728Z,6.90
2018-09-18T22:52:45.254Z,8.23
2018-09-18T22:55:13.640Z,7.13
2018-09-18T22:57:42.054Z,7.23
2018-09-18T23:00:10.710Z,7.37
2018-09-18T23:02:39.092Z,8.07
2018-09-18T23:05:07.696Z,7.77
2018-09-18T23:07:36.101Z,7.87
2018-09-18T23:10:04.528Z,7.40
2018-09-18T23:12:38.171Z,6.87
2018-09-18T23:15:06.898Z,6.93
2018-09-18T23:17:35.388Z,7.80
2018-09-18T23:20:03.858Z,7.17
2018-09-18T23:22:32.615Z,7.23
2018-09-18T23:25:00.999Z,6.70
2018-09-18T23:27:29.411Z,6.63
2018-09-18T23:29:57.831Z,7.60
2018-09-18T23:32:26.259Z,7.10
2018-09-18T23:34:54.730Z,7.27
2018-09-18T23:37:23.331Z,6.70
2018-09-18T23:39:52.069Z,6.67
2018-09-18T23:42:20.915Z,6.67
2018-09-18T23:44:49.296Z,7.57
2018-09-18T23:47:17.737Z,6.93
2018-09-18T23:49:46.129Z,6.73
2018-09-18T23:52:14.500Z,7.47
2018-09-18T23:54:42.895Z,7.27
2018-09-18T23:57:11.298Z,7.07
2018-09-18T23:59:39.705Z,5.50
